createdAt,value
2018-07-11T00:02:00.686Z,16.07
2018-07-11T00:04:28.027Z,19.37
2018-07-11T00:06:55.355Z,18.90
2018-07-11T00:09:22.683Z,14.37
2018-07-11T00:11:50.028Z,12.47
2018-07-11T00:14:17.355Z,13.60
2018-07-11T00:16:50.400Z,10.67
2018-07-11T00:19:17.727Z,14.97
2018-07-11T00:21:45.070Z,15.87
2018-07-11T00:24:12.389Z,21.30
2018-07-11T00:26:39.728Z,12.93
2018-07-11T00:29:07.111Z,15.13
2018-07-11T00:31:34.454Z,13.83
2018-07-11T00:34:01.807Z,16.93
2018-07-11T00:36:29.137Z,14.27
2018-07-11T00:38:56.522Z,16.87
2018-07-11T00:41:23.885Z,19.17
2018-07-11T00:43:51.263Z,15.83
2018-07-11T00:46:18.615Z,12.63
2018-07-11T00:48:45.978Z,12.10
2018-07-11T00:51:13.363Z,16.80
2018-07-11T00:53:40.711Z,14.97
2018-07-11T00:56:08.049Z,14.97
2018-07-11T00:58:37.534Z,15.97
2018-07-11T01:01:10.632Z,13.83
2018-07-11T01:03:40.283Z,18.07
2018-07-11T01:06:07.737Z,17.93
2018-07-11T01:08:36.615Z,16.00
2018-07-11T01:11:11.319Z,16.50
2018-07-11T01:13:40.120Z,14.27
2018-07-11T01:16:07.505Z,13.90
2018-07-11T01:18:34.908Z,19.37
2018-07-11T01:21:02.256Z,17.13
2018-07-11T01:23:29.600Z,19.27
2018-07-11T01:25:56.935Z,15.43
2018-07-11T01:28:24.289Z,15.03
2018-07-11T01:30:51.606Z,16.67
2018-07-11T01:33:18.947Z,17.30
2018-07-11T01:35:46.296Z,16.67
2018-07-11T01:38:13.629Z,16.63
2018-07-11T01:40:40.984Z,16.30
2018-07-11T01:43:08.355Z,18.50
2018-07-11T01:45:35.840Z,13.73
2018-07-11T01:48:03.210Z,17.80
2018-07-11T01:50:30.949Z,15.17
2018-07-11T01:52:59.331Z,12.73
2018-07-11T01:55:27.295Z,12.93
2018-07-11T01:57:56.282Z,15.40
2018-07-11T02:00:24.572Z,14.93
2018-07-11T02:02:51.923Z,13.80
2018-07-11T02:05:19.259Z,16.50
2018-07-11T02:07:46.623Z,12.90
2018-07-11T02:10:13.951Z,13.57
2018-07-11T02:12:42.154Z,14.83
2018-07-11T02:15:10.553Z,14.17
2018-07-11T02:17:38.329Z,15.50
2018-07-11T02:20:07.721Z,15.13
2018-07-11T02:25:34.758Z,18.63
2018-07-11T02:28:02.104Z,14.73
2018-07-11T02:30:29.495Z,16.00
2018-07-11T02:32:56.849Z,13.60
2018-07-11T02:35:24.200Z,13.77
2018-07-11T02:37:51.824Z,14.67
2018-07-11T02:40:19.167Z,14.83
2018-07-11T02:42:46.506Z,15.87
2018-07-11T02:45:13.853Z,17.53
2018-07-11T02:47:41.215Z,15.93
2018-07-11T02:50:08.600Z,15.33
2018-07-11T02:52:35.975Z,15.73
2018-07-11T02:55:03.310Z,17.10
2018-07-11T02:57:30.639Z,22.03
2018-07-11T02:59:57.998Z,18.73
2018-07-11T03:02:25.364Z,16.17
2018-07-11T03:04:52.711Z,17.60
2018-07-11T03:07:20.019Z,19.27
2018-07-11T03:09:47.337Z,13.57
2018-07-11T03:12:14.663Z,17.93
2018-07-11T03:14:46.278Z,14.30
2018-07-11T03:17:13.639Z,18.40
2018-07-11T03:19:41.008Z,13.60
2018-07-11T03:22:08.361Z,14.20
2018-07-11T03:24:35.716Z,18.83
2018-07-11T03:27:03.068Z,17.20
2018-07-11T03:29:30.395Z,18.27
2018-07-11T03:31:57.729Z,18.83
2018-07-11T03:34:25.076Z,21.77
2018-07-11T03:36:52.417Z,20.97
2018-07-11T03:39:19.760Z,16.67
2018-07-11T03:41:47.118Z,15.10
2018-07-11T03:44:14.639Z,16.60
2018-07-11T03:46:41.966Z,15.20
2018-07-11T03:49:09.321Z,16.10
2018-07-11T03:51:36.662Z,12.47
2018-07-11T03:54:03.990Z,18.07
2018-07-11T03:56:31.323Z,13.43
2018-07-11T03:58:58.656Z,17.57
2018-07-11T04:01:25.994Z,19.63
2018-07-11T04:03:53.319Z,20.67
2018-07-11T04:06:20.651Z,18.87
2018-07-11T04:08:47.976Z,17.83
2018-07-11T04:11:15.308Z,15.97
2018-07-11T04:13:42.647Z,13.87
2018-07-11T04:16:09.979Z,14.40
2018-07-11T04:18:37.447Z,17.47
2018-07-11T04:21:04.803Z,17.63
2018-07-11T04:23:32.171Z,17.00
2018-07-11T04:25:59.542Z,14.23
2018-07-11T04:28:28.063Z,15.73
2018-07-11T04:30:55.492Z,16.70
2018-07-11T04:33:22.885Z,13.97
2018-07-11T04:35:51.060Z,15.83
2018-07-11T04:38:18.400Z,17.60
2018-07-11T04:40:46.379Z,19.50
2018-07-11T04:43:13.938Z,15.37
2018-07-11T04:45:42.017Z,15.47
2018-07-11T04:48:09.347Z,17.60
2018-07-11T04:50:37.047Z,12.90
2018-07-11T04:53:06.840Z,15.63
2018-07-11T04:55:34.462Z,14.87
2018-07-11T04:58:01.803Z,13.93
2018-07-11T05:00:29.146Z,13.87
2018-07-11T05:02:56.782Z,14.63
2018-07-11T05:05:24.238Z,11.47
2018-07-11T05:07:51.591Z,10.53
2018-07-11T05:10:18.916Z,15.37
2018-07-11T05:12:46.263Z,15.07
2018-07-11T05:15:13.596Z,16.40
2018-07-11T05:17:40.931Z,12.73
2018-07-11T05:20:08.276Z,18.37
2018-07-11T05:22:35.599Z,11.17
2018-07-11T05:25:02.935Z,17.00
2018-07-11T05:27:30.263Z,14.43
2018-07-11T05:29:57.591Z,14.80
2018-07-11T05:32:24.922Z,12.13
2018-07-11T05:34:52.256Z,15.23
2018-07-11T05:37:19.638Z,12.83
2018-07-11T05:39:46.971Z,10.53
2018-07-11T05:42:14.314Z,12.33
2018-07-11T05:44:41.630Z,15.83
2018-07-11T05:47:08.963Z,17.07
2018-07-11T05:49:36.296Z,12.77
2018-07-11T05:52:03.921Z,12.28
2018-07-11T05:54:32.470Z,10.90
2018-07-11T05:57:00.109Z,10.40
2018-07-11T05:59:27.447Z,12.80
2018-07-11T06:01:54.837Z,13.67
2018-07-11T06:04:22.147Z,11.20
2018-07-11T06:06:49.947Z,9.40
2018-07-11T06:09:17.284Z,13.10
2018-07-11T06:11:44.606Z,12.77
2018-07-11T06:14:11.937Z,9.10
2018-07-11T06:16:39.304Z,10.03
2018-07-11T06:19:06.621Z,11.97
2018-07-11T06:21:33.949Z,10.90
2018-07-11T06:24:01.298Z,10.23
2018-07-11T06:26:28.660Z,12.93
2018-07-11T06:28:56.007Z,12.03
2018-07-11T06:31:23.361Z,14.13
2018-07-11T06:33:50.729Z,12.90
2018-07-11T06:36:18.101Z,13.27
2018-07-11T06:38:45.435Z,11.13
2018-07-11T06:41:12.985Z,12.07
2018-07-11T06:43:40.299Z,13.40
2018-07-11T06:46:07.628Z,15.30
2018-07-11T06:48:34.959Z,10.70
2018-07-11T06:51:02.303Z,13.70
2018-07-11T06:53:29.643Z,11.97
2018-07-11T06:55:57.025Z,14.47
2018-07-11T06:58:24.351Z,8.87
2018-07-11T07:00:51.802Z,13.30
2018-07-11T07:03:19.191Z,13.03
2018-07-11T07:05:46.526Z,11.50
2018-07-11T07:08:13.903Z,10.27
2018-07-11T07:10:41.293Z,12.20
2018-07-11T07:13:08.643Z,10.27
2018-07-11T07:15:35.964Z,11.83
2018-07-11T07:18:03.324Z,13.97
2018-07-11T07:20:30.676Z,11.90
2018-07-11T07:22:58.019Z,10.60
2018-07-11T07:25:25.424Z,9.47
2018-07-11T07:27:52.768Z,7.87
2018-07-11T07:30:20.106Z,10.70
2018-07-11T07:32:47.450Z,10.70
2018-07-11T07:35:14.774Z,11.50
2018-07-11T07:37:42.155Z,8.93
2018-07-11T07:40:09.489Z,8.37
2018-07-11T07:42:36.844Z,9.03
2018-07-11T07:45:04.175Z,8.77
2018-07-11T07:47:37.280Z,9.43
2018-07-11T07:50:04.628Z,13.57
2018-07-11T07:52:31.995Z,5.93
2018-07-11T07:54:59.387Z,7.17
2018-07-11T07:57:27.700Z,9.07
2018-07-11T07:59:55.052Z,5.20
2018-07-11T08:02:22.428Z,8.17
2018-07-11T08:04:49.787Z,10.17
2018-07-11T08:07:17.254Z,10.00
2018-07-11T08:09:44.607Z,9.70
2018-07-11T08:12:11.963Z,8.57
2018-07-11T08:14:39.327Z,5.67
2018-07-11T08:17:06.675Z,7.47
2018-07-11T08:19:34.023Z,6.87
2018-07-11T08:22:12.799Z,11.60
2018-07-11T08:24:51.871Z,8.93
2018-07-11T08:28:00.609Z,5.63
2018-07-11T08:30:38.018Z,10.43
2018-07-11T08:33:17.702Z,13.30
2018-07-11T08:35:57.080Z,6.50
2018-07-11T08:38:35.718Z,11.17
2018-07-11T08:41:13.315Z,8.03
2018-07-11T08:44:03.056Z,11.43
2018-07-11T08:46:41.948Z,7.70
2018-07-11T08:52:26.939Z,8.23
2018-07-11T08:55:10.795Z,8.57
2018-07-11T08:59:53.284Z,8.63
2018-07-11T09:04:41.079Z,10.77
2018-07-11T09:07:27.074Z,5.10
2018-07-11T09:12:26.698Z,5.30
2018-07-11T09:17:14.475Z,4.83
2018-07-11T09:20:24.621Z,4.63
2018-07-11T09:23:04.758Z,3.13
2018-07-11T09:25:32.140Z,7.60
2018-07-11T09:27:59.511Z,3.43
2018-07-11T09:30:26.922Z,5.27
2018-07-11T09:32:54.236Z,7.70
2018-07-11T09:35:21.575Z,5.27
2018-07-11T09:37:48.911Z,4.27
2018-07-11T09:40:16.336Z,4.30
2018-07-11T09:43:15.103Z,3.87
2018-07-11T09:45:42.919Z,5.17
2018-07-11T09:48:10.284Z,4.37
2018-07-11T09:50:37.636Z,4.43
2018-07-11T09:53:05.317Z,7.43
2018-07-11T09:55:32.668Z,3.33
2018-07-11T09:58:00.053Z,2.40
2018-07-11T10:00:33.087Z,4.10
2018-07-11T10:03:00.447Z,5.37
2018-07-11T10:05:28.299Z,4.30
2018-07-11T10:07:55.697Z,4.40
2018-07-11T10:10:23.139Z,4.80
2018-07-11T10:12:50.482Z,3.83
2018-07-11T10:15:17.837Z,4.50
2018-07-11T10:17:45.220Z,3.07
2018-07-11T10:20:12.601Z,4.27
2018-07-11T10:22:39.981Z,3.37
2018-07-11T10:25:07.540Z,6.50
2018-07-11T10:27:34.915Z,5.30
2018-07-11T10:30:02.259Z,3.83
2018-07-11T10:32:29.807Z,7.47
2018-07-11T10:34:57.172Z,7.03
2018-07-11T10:37:24.511Z,4.27
2018-07-11T10:39:51.872Z,4.50
2018-07-11T10:42:19.204Z,4.47
2018-07-11T10:44:46.643Z,4.00
2018-07-11T10:47:14.276Z,6.13
2018-07-11T10:49:42.740Z,6.33
2018-07-11T10:52:10.075Z,4.43
2018-07-11T10:54:37.924Z,5.07
2018-07-11T10:57:05.255Z,4.57
2018-07-11T10:59:32.620Z,6.73
2018-07-11T11:02:00.136Z,5.53
2018-07-11T11:04:27.484Z,3.87
2018-07-11T11:06:54.839Z,7.43
2018-07-11T11:09:22.206Z,6.00
2018-07-11T11:11:49.607Z,7.13
2018-07-11T11:14:16.967Z,6.20
2018-07-11T11:16:44.355Z,8.10
2018-07-11T11:19:11.768Z,6.13
2018-07-11T11:21:39.129Z,6.77
2018-07-11T11:24:06.618Z,5.90
2018-07-11T11:26:33.978Z,7.13
2018-07-11T11:29:01.368Z,5.27
2018-07-11T11:31:28.720Z,7.17
2018-07-11T11:33:56.081Z,8.13
2018-07-11T11:36:23.449Z,5.70
2018-07-11T11:38:50.809Z,6.27
2018-07-11T11:41:18.179Z,9.93
2018-07-11T11:43:45.592Z,8.43
2018-07-11T11:46:12.989Z,6.73
2018-07-11T11:48:40.349Z,9.20
2018-07-11T11:51:07.707Z,5.57
2018-07-11T11:53:35.058Z,6.30
2018-07-11T11:56:02.405Z,7.20
2018-07-11T11:58:29.851Z,5.93
2018-07-11T12:00:57.215Z,5.23
2018-07-11T12:03:24.558Z,5.07
2018-07-11T12:05:51.894Z,6.27
2018-07-11T12:08:19.243Z,5.33
2018-07-11T12:10:46.614Z,7.80
2018-07-11T12:13:13.967Z,4.13
2018-07-11T12:15:41.316Z,6.87
2018-07-11T12:18:08.700Z,4.90
2018-07-11T12:20:36.055Z,6.10
2018-07-11T12:23:03.425Z,6.23
2018-07-11T12:25:30.765Z,5.63
2018-07-11T12:27:58.128Z,7.17
2018-07-11T12:30:25.495Z,7.17
2018-07-11T12:32:52.833Z,5.50
2018-07-11T12:35:20.184Z,5.23
2018-07-11T12:37:48.621Z,5.40
2018-07-11T12:40:15.987Z,7.80
2018-07-11T12:42:43.335Z,5.77
2018-07-11T12:45:10.700Z,5.23
2018-07-11T12:47:43.692Z,5.20
2018-07-11T12:50:11.877Z,9.40
2018-07-11T12:52:39.250Z,8.77
2018-07-11T12:55:06.616Z,6.17
2018-07-11T12:57:34.584Z,7.73
2018-07-11T13:00:01.925Z,6.63
2018-07-11T13:02:29.296Z,7.10
2018-07-11T13:04:56.659Z,8.63
2018-07-11T13:07:23.990Z,7.47
2018-07-11T13:09:51.361Z,5.67
2018-07-11T13:12:18.700Z,10.60
2018-07-11T13:14:46.068Z,6.87
2018-07-11T13:17:13.407Z,6.43
2018-07-11T13:19:40.768Z,7.30
2018-07-11T13:22:08.123Z,10.00
2018-07-11T13:24:35.462Z,9.13
2018-07-11T13:27:02.799Z,5.93
2018-07-11T13:29:30.160Z,7.83
2018-07-11T13:31:58.504Z,7.63
2018-07-11T13:34:25.862Z,6.90
2018-07-11T13:36:53.685Z,5.30
2018-07-11T13:39:22.134Z,7.03
2018-07-11T13:41:50.054Z,6.53
2018-07-11T13:44:17.631Z,8.10
2018-07-11T13:46:45.327Z,8.00
2018-07-11T13:49:13.167Z,8.60
2018-07-11T13:51:40.543Z,8.00
2018-07-11T13:54:08.120Z,8.07
2018-07-11T13:56:35.727Z,8.13
2018-07-11T13:59:03.264Z,5.17
2018-07-11T14:01:30.619Z,6.50
2018-07-11T14:03:58.058Z,6.03
2018-07-11T14:06:25.456Z,6.77
2018-07-11T14:08:52.993Z,5.80
2018-07-11T14:11:20.348Z,8.60
2018-07-11T14:13:47.702Z,5.87
2018-07-11T14:16:15.060Z,8.73
2018-07-11T14:18:42.803Z,4.67
2018-07-11T14:21:10.144Z,6.73
2018-07-11T14:23:39.006Z,6.73
2018-07-11T14:26:06.868Z,7.03
2018-07-11T14:28:34.444Z,8.70
2018-07-11T14:31:03.194Z,8.67
2018-07-11T14:33:31.386Z,7.30
2018-07-11T14:35:59.292Z,9.10
2018-07-11T14:38:27.052Z,7.03
2018-07-11T14:40:54.419Z,8.47
2018-07-11T14:43:22.723Z,7.37
2018-07-11T14:45:51.847Z,5.00
2018-07-11T14:48:19.160Z,7.60
2018-07-11T14:50:46.504Z,9.03
2018-07-11T14:53:14.276Z,5.97
2018-07-11T14:55:41.801Z,7.07
2018-07-11T14:58:09.209Z,6.73
2018-07-11T15:00:36.525Z,7.93
2018-07-11T15:03:04.075Z,5.93
2018-07-11T15:05:31.446Z,5.03
2018-07-11T15:07:59.179Z,5.17
2018-07-11T15:10:26.751Z,10.23
2018-07-11T15:12:54.136Z,6.70
2018-07-11T15:15:21.671Z,8.30
2018-07-11T15:17:49.058Z,5.63
2018-07-11T15:20:16.410Z,5.37
2018-07-11T15:22:43.790Z,10.20
2018-07-11T15:25:11.131Z,5.70
2018-07-11T15:27:38.507Z,6.77
2018-07-11T15:30:05.843Z,5.33
2018-07-11T15:32:33.472Z,5.90
2018-07-11T15:35:00.828Z,7.93
2018-07-11T15:37:28.176Z,6.43
2018-07-11T15:39:56.427Z,9.97
2018-07-11T15:42:23.778Z,6.23
2018-07-11T15:44:51.855Z,7.87
2018-07-11T15:47:21.713Z,7.63
2018-07-11T15:49:51.344Z,6.33
2018-07-11T15:52:19.970Z,7.10
2018-07-11T15:54:47.568Z,7.13
2018-07-11T15:57:33.099Z,7.37
2018-07-11T16:00:03.817Z,14.20
2018-07-11T16:02:31.155Z,6.47
2018-07-11T16:04:58.587Z,9.60
2018-07-11T16:07:28.134Z,10.30
2018-07-11T16:09:57.188Z,12.63
2018-07-11T16:12:25.125Z,10.80
2018-07-11T16:14:52.608Z,11.53
2018-07-11T16:17:20.880Z,11.80
2018-07-11T16:19:48.271Z,16.47
2018-07-11T16:22:15.699Z,11.27
2018-07-11T16:24:43.072Z,17.13
2018-07-11T16:27:10.427Z,10.57
2018-07-11T16:29:37.792Z,9.73
2018-07-11T16:32:05.784Z,8.33
2018-07-11T16:34:33.159Z,11.77
2018-07-11T16:37:00.549Z,14.80
2018-07-11T16:39:27.966Z,17.03
2018-07-11T16:41:55.355Z,14.67
2018-07-11T16:44:22.728Z,12.67
2018-07-11T16:46:50.261Z,12.27
2018-07-11T16:49:17.685Z,17.17
2018-07-11T16:51:45.047Z,16.43
2018-07-11T16:54:12.796Z,13.13
2018-07-11T16:56:40.152Z,19.97
2018-07-11T16:59:09.333Z,14.20
2018-07-11T17:01:46.364Z,14.63
2018-07-11T17:04:13.739Z,13.13
2018-07-11T17:06:41.112Z,12.07
2018-07-11T17:09:08.895Z,15.83
2018-07-11T17:11:36.262Z,10.93
2018-07-11T17:14:04.555Z,11.03
2018-07-11T17:16:49.012Z,12.70
2018-07-11T17:19:25.637Z,16.90
2018-07-11T17:21:53.199Z,17.90
2018-07-11T17:24:21.527Z,11.83
2018-07-11T17:26:50.511Z,14.90
2018-07-11T17:29:22.946Z,14.93
2018-07-11T17:31:53.106Z,17.60
2018-07-11T17:34:21.297Z,14.73
2018-07-11T17:36:51.562Z,14.37
2018-07-11T17:39:18.935Z,14.63
2018-07-11T17:41:46.611Z,15.10
2018-07-11T17:44:14.893Z,12.07
2018-07-11T17:46:42.326Z,15.40
2018-07-11T17:49:15.231Z,14.07
2018-07-11T17:51:54.867Z,15.93
2018-07-11T17:54:27.420Z,12.40
2018-07-11T17:56:57.344Z,12.30
2018-07-11T17:59:40.177Z,10.13
2018-07-11T18:02:19.102Z,10.10
2018-07-11T18:05:59.056Z,11.10
2018-07-11T18:08:32.416Z,11.93
2018-07-11T18:10:59.971Z,11.93
2018-07-11T18:13:30.428Z,16.00
2018-07-11T18:17:04.482Z,13.80
2018-07-11T18:19:53.296Z,16.40
2018-07-11T18:22:46.203Z,10.40
2018-07-11T18:26:29.477Z,16.03
2018-07-11T18:29:10.005Z,10.07
2018-07-11T18:31:48.805Z,15.17
2018-07-11T18:35:31.209Z,12.77
2018-07-11T18:38:22.983Z,12.63
2018-07-11T18:40:57.505Z,12.53
2018-07-11T18:44:31.781Z,12.17
2018-07-11T18:47:13.058Z,22.83
2018-07-11T18:51:58.336Z,12.17
2018-07-11T18:54:36.679Z,11.93
2018-07-11T18:57:14.515Z,13.73
2018-07-11T18:59:53.302Z,16.13
2018-07-11T19:02:29.952Z,12.27
2018-07-11T19:05:06.923Z,12.37
2018-07-11T19:07:51.631Z,15.60
2018-07-11T19:10:31.429Z,17.93
2018-07-11T19:12:59.343Z,14.77
2018-07-11T19:15:39.028Z,13.27
2018-07-11T19:19:15.226Z,14.93
2018-07-11T19:23:58.717Z,13.07
2018-07-11T19:26:37.499Z,13.63
2018-07-11T19:30:09.877Z,15.97
2018-07-11T19:32:59.685Z,16.60
2018-07-11T19:37:42.270Z,16.13
2018-07-11T19:40:17.115Z,15.67
2018-07-11T19:43:54.431Z,15.37
2018-07-11T19:46:31.120Z,14.10
2018-07-11T19:49:10.651Z,12.77
2018-07-11T19:51:56.575Z,14.23
2018-07-11T19:54:34.753Z,13.13
2018-07-11T19:57:02.140Z,15.07
2018-07-11T19:59:29.531Z,13.77
2018-07-11T20:01:56.887Z,18.33
2018-07-11T20:04:24.323Z,16.30
2018-07-11T20:06:51.711Z,13.67
2018-07-11T20:09:19.052Z,13.37
2018-07-11T20:11:46.412Z,14.53
2018-07-11T20:14:13.750Z,14.73
2018-07-11T20:16:41.121Z,15.13
2018-07-11T20:19:08.504Z,13.47
2018-07-11T20:21:35.864Z,14.20
2018-07-11T20:24:03.274Z,11.90
2018-07-11T20:26:30.629Z,15.10
2018-07-11T20:28:58.011Z,13.10
2018-07-11T20:31:25.371Z,13.30
2018-07-11T20:33:52.723Z,9.83
2018-07-11T20:36:20.174Z,12.90
2018-07-11T20:38:47.587Z,14.67
2018-07-11T20:41:14.941Z,11.17
2018-07-11T20:43:42.291Z,16.23
2018-07-11T20:46:10.332Z,13.37
2018-07-11T20:48:38.604Z,12.80
2018-07-11T20:51:06.371Z,15.80
2018-07-11T20:53:33.710Z,11.17
2018-07-11T20:56:01.111Z,13.53
2018-07-11T20:59:38.524Z,15.87
2018-07-11T21:02:17.332Z,15.93
2018-07-11T21:07:00.912Z,12.67
2018-07-11T21:09:40.178Z,14.00
2018-07-11T21:14:22.079Z,19.43
2018-07-11T21:17:00.704Z,16.27
2018-07-11T21:19:28.063Z,11.53
2018-07-11T21:21:55.409Z,12.67
2018-07-11T21:24:22.795Z,14.80
2018-07-11T21:26:50.171Z,14.70
2018-07-11T21:29:17.492Z,13.37
2018-07-11T21:31:44.847Z,14.27
2018-07-11T21:34:12.211Z,14.70
2018-07-11T21:36:39.559Z,12.83
2018-07-11T21:39:08.408Z,16.13
2018-07-11T21:41:35.746Z,16.00
2018-07-11T21:44:03.207Z,13.17
2018-07-11T21:46:30.686Z,10.10
2018-07-11T21:48:58.075Z,15.80
2018-07-11T21:51:25.427Z,12.80
2018-07-11T21:53:52.805Z,16.73
2018-07-11T21:56:20.209Z,16.17
2018-07-11T21:58:47.547Z,19.60
2018-07-11T22:01:15.732Z,13.23
2018-07-11T22:03:43.076Z,15.47
2018-07-11T22:06:10.478Z,18.00
2018-07-11T22:08:37.807Z,14.43
2018-07-11T22:11:05.167Z,15.20
2018-07-11T22:13:32.527Z,10.60
2018-07-11T22:15:59.874Z,12.97
2018-07-11T22:18:32.892Z,14.57
2018-07-11T22:21:00.042Z,15.57
2018-07-11T22:23:26.710Z,14.67
2018-07-11T22:25:53.099Z,13.22
2018-07-11T22:28:19.480Z,12.43
2018-07-11T22:30:45.894Z,18.55
2018-07-11T22:33:12.280Z,15.20
2018-07-11T22:35:38.664Z,14.83
2018-07-11T22:38:05.043Z,16.93
2018-07-11T22:40:31.438Z,13.03
2018-07-11T22:42:57.823Z,14.47
2018-07-11T22:45:24.203Z,12.23
2018-07-11T22:47:50.627Z,14.97
2018-07-11T22:50:17.039Z,17.37
2018-07-11T22:52:43.432Z,14.90
2018-07-11T22:55:09.811Z,11.83
2018-07-11T22:57:36.196Z,11.50
2018-07-11T23:00:02.584Z,13.87
2018-07-11T23:02:28.960Z,16.57
2018-07-11T23:04:55.337Z,16.90
2018-07-11T23:07:21.734Z,15.40
2018-07-11T23:09:48.128Z,12.20
2018-07-11T23:12:14.541Z,12.60
2018-07-11T23:14:40.925Z,13.37
2018-07-11T23:17:07.304Z,15.27
2018-07-11T23:19:33.686Z,12.73
2018-07-11T23:22:00.069Z,16.07
2018-07-11T23:24:26.461Z,15.07
2018-07-11T23:26:53.068Z,19.13
2018-07-11T23:29:19.523Z,14.80
2018-07-11T23:31:45.921Z,11.93
2018-07-11T23:34:12.304Z,15.53
2018-07-11T23:36:38.719Z,13.23
2018-07-11T23:39:06.220Z,13.80
2018-07-11T23:41:32.595Z,12.60
2018-07-11T23:43:58.980Z,14.50
2018-07-11T23:46:25.481Z,14.93
2018-07-11T23:48:51.935Z,12.20
2018-07-11T23:51:18.329Z,15.23
2018-07-11T23:53:44.723Z,15.18
2018-07-11T23:56:11.123Z,13.83
2018-07-11T23:58:37.499Z,13.28
